Time;durP1;ratioP1;P1;durP2;ratioP2;P2;SDS_P1;SDS_P2;PMS_P1;PMS_P2;Temp;Humidity;BMP_temperature;BMP_pressure;BME280_temperature;BME280_humidity;BME280_pressure;Samples;Min_cycle;Max_cycle;Signal;HPM_P1;HPM_P2
2022/10/05 00:02:22;;;;;;;0.23;0.23;;;;;;;12.14;88.10;100685.28;4994382;28;20177;-76
2022/10/05 00:04:52;;;;;;;0.43;0.43;;;;;;;12.00;88.90;100695.53;5012290;28;20183;-76
2022/10/05 00:07:20;;;;;;;0.03;0.03;;;;;;;11.96;89.59;100693.75;5011870;28;20183;-76
2022/10/05 00:09:54;;;;;;;0.33;0.33;;;;;;;11.90;89.49;100691.16;5011951;28;20216;-76
2022/10/05 00:12:21;;;;;;;0.43;0.43;;;;;;;11.90;90.02;100693.88;4994723;28;20299;-76
2022/10/05 00:14:49;;;;;;;0.00;0.00;;;;;;;11.88;89.96;100695.31;5012238;28;20620;-76
2022/10/05 00:17:18;;;;;;;0.00;0.00;;;;;;;11.72;91.21;100680.41;5011658;28;20169;-76
2022/10/05 00:19:50;;;;;;;0.00;0.00;;;;;;;11.66;91.67;100684.38;4994155;28;20690;-76
2022/10/05 00:22:19;;;;;;;0.10;0.10;;;;;;;11.57;92.51;100687.88;5014400;28;20545;-76
2022/10/05 00:24:46;;;;;;;0.00;0.00;;;;;;;11.58;92.64;100685.94;5019147;28;20176;-76
2022/10/05 00:27:23;;;;;;;0.00;0.00;;;;;;;11.48;92.97;100684.25;5012538;28;20184;-76
2022/10/05 00:29:50;;;;;;;0.10;0.10;;;;;;;11.51;93.95;100669.94;5011567;28;20208;-76
2022/10/05 00:32:16;;;;;;;0.20;0.20;;;;;;;11.51;94.51;100674.59;4994248;28;20180;-75
2022/10/05 00:34:43;;;;;;;0.20;0.20;;;;;;;11.57;94.06;100676.91;5012621;28;20208;-76
2022/10/05 00:37:09;;;;;;;1.07;0.53;;;;;;;11.72;93.32;100673.00;5011717;28;20176;-76
2022/10/05 00:39:37;;;;;;;0.67;0.53;;;;;;;11.93;92.23;100678.75;5010890;28;20277;-76
2022/10/05 00:42:20;;;;;;;0.00;0.00;;;;;;;12.11;90.38;100669.50;5011781;28;20242;-76
2022/10/05 00:45:12;;;;;;;0.00;0.00;;;;;;;12.13;90.18;100669.16;5011499;28;20767;-76
2022/10/05 00:48:07;;;;;;;0.30;0.30;;;;;;;12.09;90.56;100679.16;5000433;28;20699;-76
2022/10/05 00:51:04;;;;;;;0.03;0.03;;;;;;;12.04;90.07;100671.09;4994069;28;20672;-76
2022/10/05 00:53:32;;;;;;;1.70;1.70;;;;;;;12.09;90.53;100677.22;5011405;28;20570;-76
2022/10/05 00:56:09;;;;;;;0.00;0.00;;;;;;;12.07;90.17;100675.91;5011140;28;20745;-76
2022/10/05 00:58:56;;;;;;;0.47;0.47;;;;;;;12.21;90.02;100673.88;5011271;28;20183;-76
2022/10/05 01:01:30;;;;;;;0.30;0.20;;;;;;;12.27;89.17;100682.75;5011149;28;20223;-76
2022/10/05 01:04:19;;;;;;;0.50;0.50;;;;;;;12.24;89.42;100678.72;5011192;28;20184;-76
2022/10/05 01:07:22;;;;;;;0.00;0.00;;;;;;;12.22;89.41;100667.28;5010994;28;20204;-76
2022/10/05 01:10:03;;;;;;;0.07;0.07;;;;;;;12.21;89.80;100671.16;5010921;28;20196;-76
2022/10/05 01:12:50;;;;;;;3.67;1.37;;;;;;;12.11;90.35;100679.63;5011094;28;20173;-76
2022/10/05 01:15:21;;;;;;;0.53;0.53;;;;;;;12.18;89.96;100685.47;5011255;28;20271;-76
2022/10/05 01:18:07;;;;;;;0.80;0.80;;;;;;;12.20;90.03;100684.03;5010786;28;20164;-76
2022/10/05 01:20:47;;;;;;;1.07;1.07;;;;;;;12.20;89.90;100678.56;5011010;28;20610;-76
2022/10/05 01:23:42;;;;;;;0.73;0.73;;;;;;;12.23;90.58;100679.03;5010939;28;20238;-76
2022/10/05 01:26:19;;;;;;;0.63;0.10;;;;;;;12.25;90.43;100679.53;5011125;28;20182;-76
2022/10/05 01:29:14;;;;;;;5.37;2.30;;;;;;;12.20;90.48;100677.75;5010925;28;20189;-76
2022/10/05 01:32:03;;;;;;;0.27;0.23;;;;;;;12.19;90.65;100676.13;4988559;28;20216;-76
2022/10/05 01:34:36;;;;;;;0.17;0.17;;;;;;;12.11;90.96;100669.50;5010819;28;20592;-76
2022/10/05 01:37:23;;;;;;;0.73;0.70;;;;;;;12.17;91.39;100670.19;5010858;28;20199;-76
2022/10/05 01:40:07;;;;;;;0.10;0.10;;;;;;;12.16;91.35;100671.31;4993159;28;20208;-76
2022/10/05 01:43:20;;;;;;;0.30;0.10;;;;;;;12.07;91.70;100665.78;5013608;28;20259;-76
2022/10/05 01:46:00;;;;;;;0.60;0.40;;;;;;;12.10;91.73;100658.84;5001475;28;20275;-76
2022/10/05 01:48:38;;;;;;;0.53;0.53;;;;;;;12.06;92.09;100655.13;5014702;28;20291;-76
2022/10/05 01:51:07;;;;;;;0.03;0.03;;;;;;;12.08;92.46;100650.97;5014930;28;20239;-76
2022/10/05 01:53:56;;;;;;;0.40;0.27;;;;;;;12.06;92.31;100657.88;5014738;28;20191;-76
2022/10/05 01:56:44;;;;;;;0.77;0.67;;;;;;;12.16;91.93;100654.88;5014410;28;20219;-76
2022/10/05 01:59:43;;;;;;;0.63;0.57;;;;;;;12.22;91.80;100656.31;5014452;28;20714;-76
2022/10/05 02:02:12;;;;;;;0.67;0.67;;;;;;;12.25;91.57;100644.72;5014645;28;20177;-76
2022/10/05 02:04:43;;;;;;;0.67;0.50;;;;;;;12.21;91.64;100635.53;5014376;28;20188;-76
2022/10/05 02:07:13;;;;;;;0.00;0.00;;;;;;;12.19;92.01;100629.56;5014640;28;20215;-76
2022/10/05 02:09:54;;;;;;;0.00;0.00;;;;;;;12.22;92.26;100631.66;5014240;28;20618;-76
2022/10/05 02:12:24;;;;;;;0.77;0.77;;;;;;;12.20;92.45;100623.78;5014388;28;20180;-76
2022/10/05 02:14:57;;;;;;;1.07;0.60;;;;;;;12.24;91.96;100623.94;5014367;28;20184;-76
2022/10/05 02:17:39;;;;;;;0.67;0.67;;;;;;;12.31;91.86;100624.28;5014251;28;20180;-76
2022/10/05 02:20:07;;;;;;;0.47;0.47;;;;;;;12.31;91.76;100620.75;5014088;28;20566;-76
2022/10/05 02:22:41;;;;;;;0.83;0.83;;;;;;;12.33;91.47;100613.00;4996639;28;20588;-76
2022/10/05 02:25:12;;;;;;;0.40;0.40;;;;;;;12.31;91.52;100610.59;4996484;28;20198;-76
2022/10/05 02:27:44;;;;;;;0.00;0.00;;;;;;;12.35;91.88;100618.97;4996609;28;20223;-76
2022/10/05 02:30:10;;;;;;;0.50;0.50;;;;;;;12.34;91.21;100618.16;5014034;28;20215;-75
2022/10/05 02:32:41;;;;;;;1.10;0.57;;;;;;;12.35;91.78;100614.31;5014540;28;20177;-76
2022/10/05 02:35:15;;;;;;;0.10;0.10;;;;;;;12.37;91.48;100601.09;5013881;28;20661;-76
2022/10/05 02:37:59;;;;;;;0.00;0.00;;;;;;;12.37;92.13;100603.84;5013691;28;20195;-76
2022/10/05 02:40:32;;;;;;;0.40;0.40;;;;;;;12.32;91.88;100605.94;5013959;28;20176;-76
2022/10/05 02:43:17;;;;;;;0.10;0.10;;;;;;;12.28;92.82;100597.50;5013814;28;20230;-76
2022/10/05 02:46:06;;;;;;;0.00;0.00;;;;;;;12.29;92.83;100585.44;5013550;28;20188;-76
2022/10/05 02:48:34;;;;;;;6.73;1.53;;;;;;;12.30;93.16;100589.00;5013564;28;20632;-76
2022/10/05 02:51:20;;;;;;;1.07;1.07;;;;;;;12.35;92.32;100583.38;5013831;28;20215;-75
2022/10/05 02:54:02;;;;;;;0.00;0.00;;;;;;;12.33;92.82;100589.16;5013286;28;20595;-76
2022/10/05 02:56:54;;;;;;;0.20;0.20;;;;;;;12.34;92.45;100590.78;5013234;28;20169;-76
2022/10/05 02:59:36;;;;;;;0.20;0.20;;;;;;;12.38;92.05;100588.19;5013283;28;20177;-76
2022/10/05 03:02:16;;;;;;;1.17;1.07;;;;;;;12.44;92.26;100601.44;5013213;28;20176;-75
2022/10/05 03:05:16;;;;;;;0.30;0.30;;;;;;;12.47;91.53;100598.06;5011937;28;20193;-76
2022/10/05 03:08:04;;;;;;;0.60;0.60;;;;;;;12.45;91.77;100594.03;4995269;28;20180;-76
2022/10/05 03:10:35;;;;;;;11.73;1.87;;;;;;;12.48;91.48;100585.16;5012903;28;20831;-77
2022/10/05 03:13:07;;;;;;;0.10;0.10;;;;;;;12.43;91.65;100580.63;5013042;28;20272;-76
2022/10/05 03:15:51;;;;;;;0.90;0.90;;;;;;;12.37;91.96;100578.38;5012882;28;20548;-76
2022/10/05 03:18:56;;;;;;;0.20;0.20;;;;;;;12.37;92.33;100573.69;5012929;28;20208;-77
2022/10/05 03:21:33;;;;;;;0.40;0.40;;;;;;;12.35;91.97;100569.66;5012960;28;20176;-76
2022/10/05 03:24:14;;;;;;;0.47;0.47;;;;;;;12.36;92.01;100565.78;5013254;28;20200;-76
2022/10/05 03:26:54;;;;;;;0.87;0.87;;;;;;;12.38;92.01;100564.34;5012544;28;20544;-76
2022/10/05 03:29:34;;;;;;;0.30;0.30;;;;;;;12.41;92.18;100566.44;5012687;28;20187;-76
2022/10/05 03:32:21;;;;;;;0.07;0.07;;;;;;;12.42;91.54;100565.31;5012907;28;20215;-76
2022/10/05 03:35:01;;;;;;;0.10;0.10;;;;;;;12.41;91.34;100566.44;4995075;28;20204;-76
2022/10/05 03:38:02;;;;;;;0.00;0.00;;;;;;;12.39;91.33;100570.63;5012340;28;20496;-76
2022/10/05 03:40:37;;;;;;;0.60;0.60;;;;;;;12.32;92.59;100570.31;5009380;28;20440;-76
2022/10/05 03:43:21;;;;;;;0.20;0.20;;;;;;;12.28;92.29;100570.13;5012500;28;20246;-76
2022/10/05 03:46:11;;;;;;;0.00;0.00;;;;;;;12.31;92.77;100580.47;5010871;28;20177;-76
2022/10/05 03:48:52;;;;;;;0.53;0.53;;;;;;;12.24;92.72;100568.34;5012568;28;20179;-76
2022/10/05 03:51:27;;;;;;;0.00;0.00;;;;;;;12.11;93.57;100568.16;5012441;28;20213;-76
2022/10/05 03:54:02;;;;;;;0.00;0.00;;;;;;;12.02;94.53;100561.88;5012338;28;20172;-76
2022/10/05 03:56:36;;;;;;;0.63;0.63;;;;;;;11.93;95.28;100563.75;5011841;28;20286;-76
2022/10/05 03:59:15;;;;;;;0.53;0.53;;;;;;;11.89;95.78;100558.13;5012118;28;20305;-76
2022/10/05 04:01:57;;;;;;;0.13;0.13;;;;;;;11.87;96.73;100545.88;5012546;28;20172;-76
2022/10/05 04:04:35;;;;;;;0.73;0.23;;;;;;;11.88;96.73;100542.81;5011510;28;20197;-75
2022/10/05 04:07:01;;;;;;;5.50;2.23;;;;;;;11.93;96.60;100532.84;5011701;28;20179;-76
2022/10/05 04:09:35;;;;;;;0.93;0.93;;;;;;;11.95;95.91;100536.88;5012067;28;20251;-76
2022/10/05 04:12:13;;;;;;;0.70;0.70;;;;;;;12.01;96.01;100537.53;4994413;28;20194;-76
2022/10/05 04:14:47;;;;;;;0.00;0.00;;;;;;;12.05;96.16;100533.84;5011905;28;20275;-76
2022/10/05 04:17:20;;;;;;;5.30;1.27;;;;;;;12.11;95.35;100537.22;5011422;28;20177;-76
2022/10/05 04:19:59;;;;;;;0.60;0.17;;;;;;;12.18;95.31;100521.13;5011790;28;20198;-75
2022/10/05 04:22:30;;;;;;;0.73;0.73;;;;;;;12.21;94.51;100521.28;5011705;28;20597;-76
2022/10/05 04:25:15;;;;;;;2.13;2.00;;;;;;;12.23;94.57;100515.50;5011624;28;20173;-76
2022/10/05 04:28:05;;;;;;;0.37;0.37;;;;;;;12.20;94.30;100514.22;5011306;28;20172;-76
2022/10/05 04:30:37;;;;;;;0.80;0.80;;;;;;;12.23;94.67;100515.50;4997506;28;20323;-76
2022/10/05 04:33:09;;;;;;;5.30;0.83;;;;;;;12.27;94.71;100512.91;5011546;28;20165;-76
2022/10/05 04:35:58;;;;;;;1.33;1.33;;;;;;;12.21;94.23;100502.13;4994039;28;20279;-76
2022/10/05 04:38:23;;;;;;;1.07;1.07;;;;;;;12.23;94.52;100504.53;5011375;28;20580;-76
2022/10/05 04:41:13;;;;;;;0.07;0.07;;;;;;;12.27;94.75;100501.94;5011284;28;20172;-76
2022/10/05 04:44:15;;;;;;;0.87;0.87;;;;;;;12.28;94.92;100492.59;5011358;28;20694;-76
2022/10/05 04:46:47;;;;;;;0.07;0.07;;;;;;;12.30;94.67;100510.34;5010932;28;20182;-76
2022/10/05 04:49:41;;;;;;;0.30;0.30;;;;;;;12.33;94.72;100511.66;5011136;28;20636;-76
2022/10/05 04:52:23;;;;;;;0.30;0.30;;;;;;;12.22;94.35;100505.66;4993556;28;20188;-76
2022/10/05 04:55:06;;;;;;;2.17;1.50;;;;;;;12.24;94.87;100497.94;5011064;28;20176;-76
2022/10/05 04:58:09;;;;;;;0.00;0.00;;;;;;;12.25;94.94;100483.09;5009586;28;20698;-76
2022/10/05 05:00:52;;;;;;;0.20;0.20;;;;;;;12.20;94.76;100475.84;4979643;28;20255;-76
2022/10/05 05:03:33;;;;;;;0.00;0.00;;;;;;;12.23;95.60;100490.03;5010981;28;20197;-76
2022/10/05 05:06:17;;;;;;;0.30;0.30;;;;;;;12.21;95.73;100506.78;5010920;28;20176;-76
2022/10/05 05:09:10;;;;;;;0.17;0.17;;;;;;;12.20;95.95;100508.72;5011629;28;20176;-76
2022/10/05 05:12:02;;;;;;;0.00;0.00;;;;;;;12.12;96.43;100492.28;5011519;28;20279;-76
2022/10/05 05:14:50;;;;;;;0.63;0.63;;;;;;;12.10;96.72;100497.28;4990777;28;20227;-76
2022/10/05 05:17:27;;;;;;;0.00;0.00;;;;;;;12.14;96.59;100500.97;5010130;28;20192;-76
2022/10/05 05:20:01;;;;;;;0.33;0.33;;;;;;;12.10;96.57;100508.22;5011091;28;20213;-76
2022/10/05 05:22:51;;;;;;;0.10;0.10;;;;;;;12.04;97.09;100495.81;5010987;28;20267;-76
2022/10/05 05:25:41;;;;;;;0.20;0.20;;;;;;;12.01;96.89;100496.47;5011350;28;20207;-77
2022/10/05 05:28:19;;;;;;;0.00;0.00;;;;;;;11.90;98.26;100488.53;5010962;28;20645;-76
2022/10/05 05:31:00;;;;;;;0.00;0.00;;;;;;;11.82;98.53;100492.06;5010892;28;20212;-75
2022/10/05 05:33:43;;;;;;;0.87;0.87;;;;;;;11.81;99.23;100489.66;4993724;28;20195;-76
2022/10/05 05:36:38;;;;;;;0.30;0.30;;;;;;;11.74;99.30;100495.56;5010677;28;20179;-75
2022/10/05 05:39:24;;;;;;;0.00;0.00;;;;;;;11.68;99.84;100496.00;5010744;28;20185;-76
2022/10/05 05:42:00;;;;;;;0.00;0.00;;;;;;;11.65;100.00;100497.47;5011004;28;20570;-76
2022/10/05 05:44:28;;;;;;;0.00;0.00;;;;;;;11.57;100.00;100496.31;5010972;28;20226;-76
2022/10/05 05:47:00;;;;;;;0.13;0.13;;;;;;;11.60;100.00;100505.81;5010802;28;20533;-76
2022/10/05 05:49:53;;;;;;;0.10;0.10;;;;;;;11.66;100.00;100518.22;5011082;28;20200;-75
2022/10/05 05:52:33;;;;;;;0.10;0.10;;;;;;;11.60;100.00;100531.25;5010953;28;20165;-76
2022/10/05 05:55:06;;;;;;;0.23;0.23;;;;;;;11.51;100.00;100529.59;5011477;28;20200;-76
2022/10/05 05:57:39;;;;;;;0.17;0.17;;;;;;;11.41;100.00;100527.94;5010566;28;20376;-76
2022/10/05 06:00:14;;;;;;;0.53;0.30;;;;;;;11.37;100.00;100523.41;5011063;28;20169;-75
2022/10/05 06:02:54;;;;;;;0.20;0.20;;;;;;;11.34;100.00;100511.19;5010996;28;20635;-76
2022/10/05 06:05:34;;;;;;;0.87;0.87;;;;;;;11.55;100.00;100517.69;5010697;28;20195;-76
2022/10/05 06:08:07;;;;;;;0.30;0.30;;;;;;;11.66;100.00;100520.97;5010745;28;20572;-77
2022/10/05 06:10:42;;;;;;;22.73;1.87;;;;;;;11.68;100.00;100507.75;5010637;28;20200;-76
2022/10/05 06:13:21;;;;;;;0.33;0.33;;;;;;;11.71;100.00;100511.78;5010731;28;20169;-75
2022/10/05 06:15:53;;;;;;;0.93;0.20;;;;;;;11.71;100.00;100517.25;5010403;28;20161;-75
2022/10/05 06:18:21;;;;;;;0.47;0.13;;;;;;;11.72;100.00;100527.94;5010572;28;20192;-76
2022/10/05 06:21:04;;;;;;;0.00;0.00;;;;;;;11.72;100.00;100527.94;5010686;28;20231;-76
2022/10/05 06:23:50;;;;;;;0.07;0.07;;;;;;;11.74;100.00;100530.34;5010601;28;20690;-76
2022/10/05 06:26:38;;;;;;;0.00;0.00;;;;;;;11.72;100.00;100518.91;4990047;28;20192;-76
2022/10/05 06:29:10;;;;;;;0.10;0.10;;;;;;;11.72;100.00;100527.13;5008821;28;20173;-75
2022/10/05 06:31:41;;;;;;;0.20;0.20;;;;;;;11.71;100.00;100531.75;5014308;28;20258;-76
2022/10/05 06:34:33;;;;;;;0.40;0.40;;;;;;;11.76;100.00;100530.81;5014187;28;20168;-76
2022/10/05 06:37:01;;;;;;;0.87;0.87;;;;;;;11.84;100.00;100533.59;5013746;28;20264;-76
2022/10/05 06:39:29;;;;;;;0.10;0.10;;;;;;;11.92;100.00;100537.50;5013927;28;20175;-75
2022/10/05 06:42:00;;;;;;;0.00;0.00;;;;;;;11.97;100.00;100533.81;5014361;28;20164;-77
2022/10/05 06:44:44;;;;;;;0.00;0.00;;;;;;;11.97;100.00;100542.03;5013947;28;20177;-76
2022/10/05 06:47:22;;;;;;;0.30;0.20;;;;;;;12.01;100.00;100535.59;5013619;28;20208;-76
2022/10/05 06:50:13;;;;;;;0.00;0.00;;;;;;;12.07;100.00;100544.47;5013735;28;20544;-76
2022/10/05 06:52:45;;;;;;;0.00;0.00;;;;;;;12.08;99.71;100541.41;5007264;28;20652;-76
2022/10/05 06:55:22;;;;;;;0.10;0.10;;;;;;;12.08;100.00;100543.34;4996083;28;20184;-75
2022/10/05 06:57:53;;;;;;;0.00;0.00;;;;;;;12.15;100.00;100535.44;5013620;28;20160;-76
2022/10/05 07:00:23;;;;;;;0.33;0.33;;;;;;;12.15;99.96;100533.53;5013669;28;20168;-76
2022/10/05 07:02:57;;;;;;;0.00;0.00;;;;;;;12.16;99.64;100529.69;5013490;28;20192;-75
2022/10/05 07:05:50;;;;;;;0.03;0.03;;;;;;;12.14;99.45;100526.44;5013607;28;20160;-76
2022/10/05 07:08:37;;;;;;;0.00;0.00;;;;;;;12.17;99.49;100535.97;5013436;28;20195;-76
2022/10/05 07:11:39;;;;;;;0.00;0.00;;;;;;;12.15;99.22;100527.22;5013797;28;20200;-75
2022/10/05 07:14:16;;;;;;;0.00;0.00;;;;;;;12.26;99.17;100531.28;5013823;28;20586;-76
2022/10/05 07:16:55;;;;;;;0.00;0.00;;;;;;;12.37;98.32;100529.84;5013197;28;20175;-75
2022/10/05 07:19:25;;;;;;;0.00;0.00;;;;;;;12.55;98.04;100529.84;5013401;28;20177;-75
2022/10/05 07:22:13;;;;;;;0.20;0.20;;;;;;;12.73;97.21;100526.81;5013372;28;20171;-75
2022/10/05 07:24:46;;;;;;;0.97;0.97;;;;;;;12.93;96.80;100516.28;5013154;28;20609;-76
2022/10/05 07:27:21;;;;;;;0.37;0.37;;;;;;;13.12;95.90;100516.72;4995705;28;20188;-76
2022/10/05 07:30:06;;;;;;;1.23;1.17;;;;;;;13.22;94.59;100518.34;5013573;28;20183;-75
2022/10/05 07:32:44;;;;;;;0.77;0.77;;;;;;;13.24;93.53;100521.56;5014070;28;20177;-75
2022/10/05 07:38:16;;;;;;;0.00;0.00;;;;;;;13.39;93.04;100513.59;4976755;28;20189;-77
2022/10/05 07:40:53;;;;;;;1.77;1.63;;;;;;;13.37;92.71;100512.34;5002616;28;20210;-76
2022/10/05 07:43:42;;;;;;;4.50;1.40;;;;;;;13.26;93.24;100517.38;5033022;28;20680;-76
2022/10/05 07:46:19;;;;;;;0.37;0.37;;;;;;;13.26;93.08;100513.81;5015667;28;20528;-76
2022/10/05 07:49:20;;;;;;;2.70;1.23;;;;;;;13.22;94.41;100519.16;5031712;28;20589;-76
2022/10/05 07:51:59;;;;;;;0.00;0.00;;;;;;;13.21;93.96;100520.28;5011189;28;20211;-74
2022/10/05 07:54:33;;;;;;;0.10;0.10;;;;;;;13.23;94.59;100525.44;5013871;28;20260;-74
2022/10/05 07:57:18;;;;;;;0.00;0.00;;;;;;;13.24;94.96;100525.13;5011083;28;20200;-75
2022/10/05 07:59:55;;;;;;;0.60;0.60;;;;;;;13.27;94.38;100527.19;4986684;28;20287;-75
2022/10/05 08:02:34;;;;;;;0.00;0.00;;;;;;;13.27;94.76;100523.66;5006112;28;20180;-75
2022/10/05 08:05:04;;;;;;;2.40;1.97;;;;;;;13.29;94.81;100521.38;5010588;28;20783;-84
2022/10/05 08:07:33;;;;;;;0.73;0.67;;;;;;;13.34;94.61;100523.97;5017372;28;20187;-79
2022/10/05 08:10:15;;;;;;;0.80;0.63;;;;;;;13.37;94.41;100520.56;5003177;28;20565;-75
2022/10/05 08:13:10;;;;;;;1.07;0.83;;;;;;;13.52;94.30;100527.44;5016563;28;20188;-75
2022/10/05 08:15:46;;;;;;;0.00;0.00;;;;;;;13.59;94.31;100531.28;4994143;28;20185;-75
2022/10/05 08:18:42;;;;;;;0.70;0.70;;;;;;;13.61;93.01;100526.28;5011678;28;20216;-74
2022/10/05 08:21:12;;;;;;;1.87;1.77;;;;;;;13.62;92.73;100527.09;5011785;28;20625;-75
2022/10/05 08:23:56;;;;;;;0.60;0.60;;;;;;;13.58;92.73;100518.69;5011865;28;20262;-75
2022/10/05 08:26:54;;;;;;;0.40;0.40;;;;;;;13.58;92.62;100528.88;5011308;28;20208;-76
2022/10/05 08:29:33;;;;;;;1.00;1.00;;;;;;;13.56;92.49;100528.41;5011483;28;20371;-75
2022/10/05 08:32:05;;;;;;;1.40;1.30;;;;;;;13.60;92.68;100530.19;5011821;28;20188;-75
2022/10/05 08:34:33;;;;;;;2.03;1.93;;;;;;;13.66;92.26;100536.28;5011780;28;20183;-75
2022/10/05 08:37:12;;;;;;;1.67;1.00;;;;;;;13.70;92.71;100527.03;4993607;28;20359;-76
2022/10/05 08:39:53;;;;;;;3.03;1.90;;;;;;;13.77;91.34;100539.47;5011141;28;20168;-74
2022/10/05 08:42:27;;;;;;;1.70;1.53;;;;;;;13.81;91.29;100532.16;5011445;28;20267;-75
2022/10/05 08:44:58;;;;;;;1.07;0.73;;;;;;;13.86;90.87;100541.00;5011243;28;20633;-75
2022/10/05 08:47:56;;;;;;;1.97;1.23;;;;;;;13.91;91.02;100532.59;5010968;28;20640;-75
2022/10/05 08:50:34;;;;;;;2.10;2.00;;;;;;;14.00;90.51;100541.59;5010912;28;20211;-75
2022/10/05 08:53:19;;;;;;;1.87;1.77;;;;;;;14.05;90.05;100534.31;5011195;28;20176;-74
2022/10/05 08:55:44;;;;;;;3.23;2.60;;;;;;;14.07;89.79;100552.06;5011093;28;20411;-75
2022/10/05 08:58:28;;;;;;;1.93;1.60;;;;;;;14.11;89.96;100544.75;5011186;28;20185;-76
2022/10/05 09:01:02;;;;;;;1.63;1.43;;;;;;;14.15;89.53;100548.44;4993347;28;20176;-74
2022/10/05 09:03:33;;;;;;;0.73;0.73;;;;;;;14.23;90.07;100547.59;5010756;28;20234;-75
2022/10/05 09:06:13;;;;;;;4.37;1.80;;;;;;;14.33;90.01;100548.38;5010629;28;20168;-74
2022/10/05 09:09:20;;;;;;;3.90;3.03;;;;;;;14.38;89.04;100553.66;5013526;28;20180;-74
2022/10/05 09:12:19;;;;;;;2.20;1.80;;;;;;;14.42;88.06;100560.09;5010923;28;20208;-75
2022/10/05 09:15:18;;;;;;;1.63;1.50;;;;;;;14.46;88.15;100561.03;5011336;28;20580;-74
2022/10/05 09:18:21;;;;;;;1.07;0.97;;;;;;;14.50;87.78;100556.50;5010990;28;20176;-74
2022/10/05 09:20:54;;;;;;;1.73;1.10;;;;;;;14.53;87.49;100550.34;5011095;28;20259;-73
2022/10/05 09:23:42;;;;;;;1.37;1.27;;;;;;;14.59;87.62;100548.97;5011160;28;20255;-74
2022/10/05 09:26:32;;;;;;;1.20;0.63;;;;;;;14.67;87.35;100550.88;5010983;28;20184;-74
2022/10/05 09:29:19;;;;;;;1.87;1.13;;;;;;;14.75;87.39;100555.47;5018812;28;20179;-74
2022/10/05 09:31:54;;;;;;;3.53;2.00;;;;;;;14.71;85.60;100557.31;5019254;28;20223;-73
2022/10/05 09:34:47;;;;;;;2.43;2.17;;;;;;;14.70;85.25;100558.44;5014008;28;20183;-73
2022/10/05 09:37:40;;;;;;;2.23;2.13;;;;;;;14.73;85.44;100567.97;5010699;28;20514;-74
2022/10/05 09:40:23;;;;;;;4.27;2.33;;;;;;;14.76;85.78;100564.56;4996784;28;20168;-72
2022/10/05 09:42:54;;;;;;;2.33;2.13;;;;;;;14.73;85.04;100570.72;5019987;28;20172;-74
2022/10/05 09:45:30;;;;;;;2.50;1.67;;;;;;;14.76;85.00;100561.81;5001472;28;20850;-73
2022/10/05 09:48:26;;;;;;;2.90;2.17;;;;;;;14.76;85.11;100567.31;5017550;28;20183;-74
2022/10/05 09:51:03;;;;;;;0.30;0.13;;;;;;;14.74;85.29;100556.63;5019572;28;20200;-75
2022/10/05 09:54:00;;;;;;;2.17;2.07;;;;;;;14.81;85.89;100556.09;5030566;28;20619;-74
2022/10/05 09:56:44;;;;;;;0.77;0.77;;;;;;;14.77;84.99;100561.47;5029873;28;20179;-73
2022/10/05 09:59:37;;;;;;;3.43;1.87;;;;;;;14.78;85.43;100560.31;5009619;28;20216;-77
2022/10/05 10:02:19;;;;;;;1.23;1.13;;;;;;;14.78;85.04;100560.31;4987891;28;20191;-74
2022/10/05 10:05:04;;;;;;;1.33;1.23;;;;;;;14.77;84.21;100558.72;5014395;28;20256;-75
2022/10/05 10:07:57;;;;;;;1.57;1.40;;;;;;;14.78;84.30;100557.56;5016287;28;20185;-73
2022/10/05 10:10:34;;;;;;;1.77;1.63;;;;;;;14.76;84.07;100556.31;5028153;28;20202;-75
2022/10/05 10:13:37;;;;;;;1.80;1.70;;;;;;;14.79;84.37;100564.69;5029702;28;20176;-75
2022/10/05 10:16:52;;;;;;;3.93;1.80;;;;;;;14.77;84.35;100557.91;5026379;28;20181;-76
2022/10/05 10:19:29;;;;;;;0.60;0.60;;;;;;;14.76;84.76;100559.88;5027544;28;20192;-75
2022/10/05 10:22:08;;;;;;;2.70;2.50;;;;;;;14.75;85.47;100560.97;5042661;28;20183;-75
2022/10/05 10:24:57;;;;;;;1.87;1.77;;;;;;;14.72;84.80;100558.09;5043723;28;20176;-76
2022/10/05 10:27:53;;;;;;;1.63;1.30;;;;;;;14.72;84.77;100558.09;5047474;28;20191;-73
2022/10/05 10:30:24;;;;;;;1.67;1.57;;;;;;;14.70;84.74;100552.94;5033554;28;20655;-74
2022/10/05 10:33:12;;;;;;;1.97;1.87;;;;;;;14.71;85.59;100557.31;5033627;28;20172;-74
2022/10/05 10:35:47;;;;;;;1.60;1.50;;;;;;;14.71;85.52;100548.25;5033437;28;20172;-74
2022/10/05 10:38:27;;;;;;;1.47;1.47;;;;;;;14.70;85.30;100550.19;5015738;28;20545;-73
2022/10/05 10:41:03;;;;;;;2.53;1.73;;;;;;;14.64;85.08;100548.00;5015642;28;20274;-73
2022/10/05 10:43:52;;;;;;;2.00;1.77;;;;;;;14.60;84.76;100553.34;5033438;28;20210;-74
2022/10/05 10:46:56;;;;;;;3.43;3.13;;;;;;;14.60;84.88;100553.34;5031673;28;20191;-73
2022/10/05 10:49:40;;;;;;;1.33;1.33;;;;;;;14.58;85.67;100552.88;5033104;28;20175;-73
2022/10/05 10:52:11;;;;;;;1.20;1.10;;;;;;;14.59;86.25;100558.03;5033272;28;20187;-75
2022/10/05 10:55:04;;;;;;;3.23;2.93;;;;;;;14.57;85.51;100548.50;5033233;28;20627;-74
2022/10/05 10:58:03;;;;;;;2.13;2.00;;;;;;;14.59;85.75;100536.03;5032114;28;20585;-74
2022/10/05 11:00:57;;;;;;;3.13;2.93;;;;;;;14.58;85.47;100536.38;5015271;28;20176;-73
2022/10/05 11:04:01;;;;;;;2.97;2.77;;;;;;;14.57;86.24;100543.00;5028733;28;20294;-74
2022/10/05 11:07:05;;;;;;;2.83;2.47;;;;;;;14.57;85.37;100543.00;5032560;28;20183;-74
2022/10/05 11:09:56;;;;;;;2.27;2.07;;;;;;;14.61;85.29;100532.16;5010975;28;20187;-75
2022/10/05 11:12:43;;;;;;;2.23;2.10;;;;;;;14.62;85.39;100529.09;5032692;28;20230;-76
2022/10/05 11:15:37;;;;;;;1.13;1.13;;;;;;;14.66;85.47;100526.47;5029965;28;20655;-76
2022/10/05 11:18:05;;;;;;;1.40;1.30;;;;;;;14.69;85.37;100531.28;5032492;28;20217;-75
2022/10/05 11:20:45;;;;;;;2.83;1.80;;;;;;;14.72;85.34;100522.34;5031328;28;20750;-76
2022/10/05 11:23:22;;;;;;;2.47;2.00;;;;;;;14.76;85.07;100521.34;5032656;28;20183;-75
2022/10/05 11:26:10;;;;;;;1.40;1.30;;;;;;;14.78;84.50;100523.78;5032132;28;20181;-76
2022/10/05 11:29:26;;;;;;;2.97;2.77;;;;;;;14.82;85.00;100516.44;5032380;28;20259;-76
2022/10/05 11:32:06;;;;;;;2.23;2.13;;;;;;;14.87;84.70;100507.97;4998345;28;20223;-76
2022/10/05 11:34:57;;;;;;;0.83;0.83;;;;;;;14.92;84.26;100513.28;5032686;28;20209;-76
2022/10/05 11:37:52;;;;;;;1.70;1.60;;;;;;;14.95;84.33;100500.78;4999601;28;20269;-74
2022/10/05 11:40:52;;;;;;;1.37;1.27;;;;;;;14.96;84.01;100494.13;5012174;28;20185;-75
2022/10/05 11:43:29;;;;;;;1.67;1.57;;;;;;;15.01;84.05;100502.16;5012399;28;20187;-71
2022/10/05 11:46:04;;;;;;;2.00;1.90;;;;;;;15.06;83.75;100490.97;5011998;28;20283;-72
2022/10/05 11:48:38;;;;;;;1.47;1.37;;;;;;;15.12;83.98;100493.16;5015838;28;20179;-71
2022/10/05 11:51:18;;;;;;;1.90;1.80;;;;;;;15.16;83.41;100487.75;5000920;28;20219;-72
2022/10/05 11:53:46;;;;;;;1.77;1.67;;;;;;;15.19;82.91;100476.09;5005458;28;20690;-71
2022/10/05 11:56:17;;;;;;;1.63;1.53;;;;;;;15.24;82.17;100475.06;5022446;28;20175;-73
2022/10/05 11:59:17;;;;;;;1.83;1.73;;;;;;;15.39;82.03;100469.69;5024733;28;20176;-76
2022/10/05 12:02:18;;;;;;;2.30;1.90;;;;;;;15.61;81.47;100459.38;5003682;28;20180;-75
2022/10/05 12:05:06;;;;;;;0.40;0.40;;;;;;;15.84;81.05;100465.22;5004521;28;20183;-76
2022/10/05 12:08:09;;;;;;;3.07;1.00;;;;;;;15.99;79.53;100459.00;5030153;28;20179;-76
2022/10/05 12:11:08;;;;;;;1.67;1.47;;;;;;;16.14;79.17;100457.47;5030546;28;20260;-76
2022/10/05 12:13:33;;;;;;;0.67;0.67;;;;;;;16.22;78.11;100457.34;5010910;28;20205;-74
2022/10/05 12:16:25;;;;;;;0.20;0.20;;;;;;;16.41;78.53;100442.13;5011326;28;20192;-75
2022/10/05 12:19:08;;;;;;;0.00;0.00;;;;;;;16.71;77.79;100439.84;5011735;28;20207;-73
2022/10/05 12:21:55;;;;;;;0.63;0.63;;;;;;;16.80;76.54;100438.53;5011683;28;20188;-73
2022/10/05 12:24:45;;;;;;;1.10;1.10;;;;;;;16.84;76.23;100431.13;5012020;28;20173;-73
2022/10/05 12:27:19;;;;;;;0.00;0.00;;;;;;;16.94;74.63;100435.34;5011144;28;20177;-73
2022/10/05 12:29:47;;;;;;;0.27;0.27;;;;;;;17.07;73.16;100431.34;5011513;28;20173;-73
2022/10/05 12:32:19;;;;;;;14.67;1.23;;;;;;;17.22;72.38;100438.03;5011973;28;20172;-73
2022/10/05 12:35:23;;;;;;;0.57;0.57;;;;;;;17.30;72.09;100427.94;5011571;28;20683;-73